• Join FlightAware (Why Join?)
  • Login
  • US Flag 
07:31PM EDT


 

Airport Tracker/Info


-or-


 

Live Flight TrackerFlight Track Log ✈ C-FTOH ✈ 31-May-2013 ✈ MMPR / PVR - CYYZ

Flight Track Log - Related Links

Times and Time Zones

All times are in EDT time to prevent confusion due to time zone crossing. See the C-FTOH flight status page for this flight to view local times or setup timezone preferences in your user account.

Time Position Orientation Groundspeed Altitude Reporting Facility
EDT Latitude Longitude Course Direction KTS MPH feet Rate Location/Type
01:26PM 25.7506 -100.1622 57° Northeast 459 528 33,000  Level Houston Center
01:27PM 25.8206 -100.0417 57° Northeast 468 539 33,800 720 Climbing Houston Center
01:28PM 25.9097 -99.9392 46° Northeast 467 537 34,600 540 Climbing Houston Center
01:29PM 25.9958 -99.8350 47° Northeast 462 532 35,000 120 Climbing Houston Center
01:30PM 26.0814 -99.7286 48° Northeast 461 531 34,900  Descending Houston Center
01:31PM 26.1858 -99.6042 47° Northeast 460 529 35,000  Climbing Houston Center
01:32PM 26.2708 -99.4972 48° Northeast 461 531 34,900  Descending Houston Center
01:33PM 26.3553 -99.3919 48° Northeast 459 528 35,000  Climbing Houston Center
01:34PM 26.4422 -99.2881 47° Northeast 458 527 35,000  Level Houston Center
01:35PM 26.5258 -99.1786 49° Northeast 463 533 35,000  Level Houston Center
01:36PM 26.6150 -99.0386 55° Northeast 463 533 35,000  Level Houston Center
01:37PM 26.6903 -98.9203 55° Northeast 468 539 35,000  Level Houston Center
01:38PM 26.7644 -98.8022 55° Northeast 467 537 35,000  Level Houston Center
01:39PM 26.8400 -98.6817 55° Northeast 470 541 35,000  Level Houston Center
01:41PM 26.9150 -98.5619 55° Northeast 472 543 35,000  Level Houston Center
01:42PM 27.0053 -98.4181 55° Northeast 473 544 35,000 -60 Level Houston Center
01:43PM 27.0817 -98.2975 55° Northeast 474 545 34,900  Descending Houston Center
01:44PM 27.1561 -98.1756 56° Northeast 475 547 35,000  Climbing Houston Center
01:49PM 27.5750 -97.5030 56° Northeast 473 544 35,000  Level FlightAware
01:50PM 27.6250 -97.4220 55° Northeast 473 544 35,000  Level FlightAware
01:50PM 27.6740 -97.3430 55° Northeast 474 545 35,000  Level FlightAware
01:51PM 27.7370 -97.2410 55° Northeast 474 545 35,000  Level FlightAware
01:52PM 27.7760 -97.1770 55° Northeast 474 545 35,000  Level FlightAware
01:53PM 27.8290 -97.0930 54° Northeast 474 545 35,000  Level FlightAware
01:53PM 27.8650 -97.0340 55° Northeast 474 545 35,000  Level FlightAware
01:54PM 27.9150 -96.9530 55° Northeast 474 545 35,000  Level FlightAware
01:55PM 27.9560 -96.8870 55° Northeast 474 545 35,000  Level FlightAware
01:55PM 27.9960 -96.8210 56° Northeast 474 545 35,000  Level FlightAware
01:56PM 28.0470 -96.7400 54° Northeast 474 545 35,000  Level FlightAware
01:57PM 28.0970 -96.6590 55° Northeast 474 545 35,000  Level FlightAware
01:58PM 28.1370 -96.5950 55° Northeast 474 545 35,000  Level FlightAware
01:58PM 28.2311 -96.4213 58° Northeast 472 543 35,000  Level FlightAware ADS-B
01:58PM 28.2698 -96.3568 56° Northeast 470 541 35,000  Level FlightAware ADS-B
01:59PM 28.3066 -96.2954 56° Northeast 470 541 35,000  Level FlightAware ADS-B
01:59PM 28.3438 -96.2332 56° Northeast 468 539 35,000  Level FlightAware ADS-B
02:00PM 28.3806 -96.1716 56° Northeast 468 539 35,000  Level FlightAware ADS-B
02:00PM 28.4174 -96.1097 56° Northeast 468 539 35,000  Level FlightAware ADS-B
02:01PM 28.4544 -96.0473 56° Northeast 468 539 35,000  Level FlightAware ADS-B
02:01PM 28.4925 -95.9832 56° Northeast 468 539 35,000  Level FlightAware ADS-B
02:02PM 28.5302 -95.9199 56° Northeast 468 539 35,000  Level FlightAware ADS-B
02:03PM 28.6250 -95.7600 56° Northeast 467 537 35,000  Level FlightAware
02:04PM 28.6790 -95.6680 56° Northeast 468 539 35,000  Level FlightAware
02:05PM 28.7290 -95.5820 56° Northeast 468 539 35,000  Level FlightAware
02:05PM 28.7830 -95.4900 56° Northeast 469 540 35,000  Level FlightAware
02:06PM 28.8320 -95.4070 56° Northeast 469 540 35,000  Level FlightAware
02:07PM 28.8850 -95.3170 56° Northeast 470 541 35,000  Level FlightAware
02:07PM 28.9141 -95.2667 57° Northeast 470 541 35,000  Level FlightAware ADS-B
02:08PM 28.9503 -95.2043 56° Northeast 470 541 35,000  Level FlightAware ADS-B
02:08PM 28.9865 -95.1420 56° Northeast 469 540 35,000  Level FlightAware ADS-B
02:09PM 29.0631 -95.0100 56° Northeast 468 539 35,000  Level FlightAware ADS-B
02:10PM 29.1006 -94.9452 56° Northeast 468 539 35,000  Level FlightAware ADS-B
02:10PM 29.1381 -94.8805 56° Northeast 468 539 35,000  Level FlightAware ADS-B
02:11PM 29.1752 -94.8164 56° Northeast 468 539 35,000  Level FlightAware ADS-B
02:12PM 29.2469 -94.6916 57° Northeast 467 537 35,000  Level FlightAware ADS-B
02:14PM 29.3895 -94.4431 57° Northeast 467 537 35,000  Level FlightAware ADS-B
02:15PM 29.4624 -94.3153 57° Northeast 467 537 35,000  Level FlightAware ADS-B
02:17PM 29.6098 -94.0556 57° Northeast 469 540 35,000  Level FlightAware ADS-B
02:19PM 29.7227 -93.8558 57° Northeast 468 539 35,000  Level FlightAware ADS-B
02:20PM 29.8051 -93.7094 57° Northeast 469 540 35,000  Level FlightAware ADS-B
02:20PM 29.8413 -93.6450 57° Northeast 470 541 35,000  Level FlightAware ADS-B
02:21PM 29.9182 -93.5071 57° Northeast 470 541 35,000  Level FlightAware ADS-B
02:22PM 29.9592 -93.4338 57° Northeast 470 541 35,000  Level FlightAware ADS-B
02:23PM 30.0037 -93.3540 57° Northeast 471 542 35,000  Level FlightAware ADS-B
02:23PM 30.0417 -93.2858 57° Northeast 471 542 35,000  Level FlightAware ADS-B
02:24PM 30.0952 -93.1892 57° Northeast 472 543 35,000  Level FlightAware ADS-B
02:24PM 30.1313 -93.1242 57° Northeast 472 543 35,000  Level FlightAware ADS-B
02:25PM 30.1474 -93.0916 60° Northeast 472 543 35,000  Level FlightAware ADS-B
02:25PM 30.1896 -92.9924 64° Northeast 473 544 35,000  Level FlightAware ADS-B
02:26PM 30.2275 -92.9027 64° Northeast 472 543 35,000  Level FlightAware ADS-B
02:27PM 30.2569 -92.8330 64° Northeast 471 542 35,000  Level FlightAware ADS-B
02:27PM 30.2897 -92.7547 64° Northeast 471 542 35,000  Level FlightAware ADS-B
02:29PM 30.3890 -92.5177 64° Northeast 471 542 35,000  Level FlightAware ADS-B
02:30PM 30.4820 -92.2944 64° Northeast 474 545 35,000  Level FlightAware ADS-B
02:31PM 30.5108 -92.2225 64° Northeast 467 537 35,000  Level Houston Center
02:32PM 30.5783 -92.0583 64° Northeast 472 543 35,000  Level Houston Center
02:33PM 30.6347 -91.9211 64° Northeast 474 545 35,000  Level Houston Center
02:34PM 30.6928 -91.7844 64° Northeast 474 545 35,000  Level Houston Center
02:40PM 31.0320 -90.9460 64° Northeast 472 543 35,000  Level FlightAware
02:41PM 31.0630 -90.8680 65° Northeast 472 543 35,000  Level FlightAware
02:42PM 31.1000 -90.7760 65° Northeast 472 543 35,000  Level FlightAware
02:42PM 31.1280 -90.7050 65° Northeast 472 543 35,000  Level FlightAware
02:43PM 31.1750 -90.5870 65° Northeast 472 543 35,000  Level FlightAware
02:44PM 31.2040 -90.5140 65° Northeast 472 543 35,000  Level FlightAware
02:45PM 31.3890 -90.3740 33° Northeast 472 543 35,000  Level FlightAware
02:46PM 31.4550 -90.2720 53° Northeast 473 544 35,000  Level FlightAware
02:47PM 31.5190 -90.1720 53° Northeast 471 542 35,000  Level FlightAware
02:48PM 31.6000 -90.0440 53° Northeast 469 540 35,000  Level FlightAware
02:48PM 31.6570 -89.9550 53° Northeast 470 541 35,000  Level FlightAware
02:49PM 31.7190 -89.8570 53° Northeast 470 541 35,000  Level FlightAware
02:50PM 31.7660 -89.7840 53° Northeast 470 541 35,000  Level FlightAware
02:51PM 31.8040 -89.7250 53° Northeast 470 541 35,000  Level FlightAware
02:51PM 31.8580 -89.6400 53° Northeast 470 541 35,000  Level FlightAware
02:52PM 31.8960 -89.5810 53° Northeast 470 541 35,000  Level FlightAware
02:53PM 31.9510 -89.4960 53° Northeast 470 541 35,000  Level FlightAware
02:53PM 31.9910 -89.4330 53° Northeast 470 541 35,000  Level FlightAware
02:54PM 32.0420 -89.3530 53° Northeast 470 541 35,000  Level FlightAware
02:55PM 32.0850 -89.2850 53° Northeast 470 541 35,000  Level FlightAware
02:56PM 32.1380 -89.2030 53° Northeast 470 541 35,000  Level FlightAware
02:57PM 32.2020 -89.1020 53° Northeast 470 541 35,000  Level FlightAware
02:57PM 32.2430 -89.0380 53° Northeast 470 541 35,000  Level FlightAware
02:58PM 32.2840 -88.9730 53° Northeast 470 541 35,000  Level FlightAware
02:59PM 32.5447 -88.7531 53° Northeast 459 528 35,000  Level Memphis Center
03:00PM 32.6478 -88.6572 38° Northeast 464 534 35,000  Level Memphis Center
03:01PM 32.7486 -88.5617 39° Northeast 464 534 35,000  Level Memphis Center
03:02PM 32.8494 -88.4656 39° Northeast 464 534 35,000  Level Memphis Center
03:03PM 32.9503 -88.3694 39° Northeast 464 534 35,000  Level Memphis Center
03:04PM 33.0531 -88.2753 38° Northeast 464 534 35,000  Level Memphis Center
03:05PM 33.1394 -88.1889 40° Northeast 464 534 35,000  Level Memphis Center
03:06PM 33.2378 -88.0922 39° Northeast 456 525 35,000  Level Memphis Center
03:07PM 33.3506 -87.9872 38° Northeast 456 525 35,000  Level Memphis Center
03:08PM 33.5083 -87.8333 39° Northeast 459 528 35,000  Level Memphis Center
03:10PM 33.6567 -87.6900 39° Northeast 457 526 35,000  Level Atlanta Center
03:11PM 33.7556 -87.5942 39° Northeast 457 526 35,000  Level Atlanta Center
03:12PM 33.8650 -87.4861 39° Northeast 462 532 35,000  Level Atlanta Center
03:14PM 34.0408 -87.3103 40° Northeast 468 539 35,000  Level Atlanta Center
03:19PM 34.6027 -86.7635 40° Northeast 460 529 35,000  Level FlightAware ADS-B
03:20PM 34.6548 -86.7115 39° Northeast 460 529 35,000  Level FlightAware ADS-B
03:21PM 34.7210 -86.6450 40° Northeast 459 528 35,000  Level FlightAware
03:21PM 34.7757 -86.5903 39° Northeast 460 529 35,000  Level FlightAware ADS-B
03:22PM 34.8260 -86.5400 39° Northeast 460 529 35,000  Level FlightAware
03:22PM 34.8788 -86.4870 39° Northeast 460 529 35,000  Level FlightAware ADS-B
03:23PM 34.9296 -86.4357 40° Northeast 463 533 35,000  Level FlightAware ADS-B
03:23PM 34.9868 -86.3782 39° Northeast 464 534 35,000  Level FlightAware ADS-B
03:24PM 35.0394 -86.3250 40° Northeast 465 535 35,000  Level FlightAware ADS-B
03:24PM 35.0913 -86.2725 40° Northeast 467 537 35,000  Level FlightAware ADS-B
03:25PM 35.1531 -86.2098 40° Northeast 467 537 35,000  Level FlightAware ADS-B
03:26PM 35.2502 -86.1110 40° Northeast 466 536 35,000  Level FlightAware ADS-B
03:27PM 35.3030 -86.0573 40° Northeast 466 536 35,000  Level FlightAware ADS-B
03:27PM 35.3542 -86.0050 40° Northeast 464 534 35,000  Level FlightAware ADS-B
03:28PM 35.4081 -85.9498 40° Northeast 463 533 35,000  Level FlightAware ADS-B
03:28PM 35.4700 -85.8870 40° Northeast 462 532 35,000  Level FlightAware
03:28PM 35.4935 -85.8625 40° Northeast 462 532 35,000  Level FlightAware ADS-B
03:29PM 35.5441 -85.8106 40° Northeast 462 532 35,000  Level FlightAware ADS-B
03:29PM 35.5930 -85.7600 40° Northeast 460 529 35,000  Level FlightAware ADS-B
03:31PM 35.7267 -85.6218 40° Northeast 458 527 35,000  Level FlightAware ADS-B
03:31PM 35.7753 -85.5715 40° Northeast 458 527 35,000  Level FlightAware ADS-B
03:32PM 35.8248 -85.5202 40° Northeast 459 528 35,000  Level FlightAware ADS-B
03:33PM 35.9119 -85.4300 40° Northeast 459 528 35,000  Level FlightAware ADS-B
03:33PM 35.9641 -85.3756 40° Northeast 459 528 35,000  Level FlightAware ADS-B
03:34PM 36.0134 -85.3241 40° Northeast 460 529 35,000  Level FlightAware ADS-B
03:34PM 36.0628 -85.2724 40° Northeast 460 529 35,000  Level FlightAware ADS-B
03:35PM 36.1120 -85.2208 40° Northeast 461 531 35,000  Level FlightAware ADS-B
03:36PM 36.1913 -85.1375 40° Northeast 461 531 35,000  Level FlightAware ADS-B
03:36PM 36.2660 -85.0590 40° Northeast 464 534 35,000  Level FlightAware ADS-B
03:37PM 36.3168 -85.0054 40° Northeast 465 535 35,000  Level FlightAware ADS-B
03:37PM 36.3707 -84.9485 40° Northeast 466 536 35,000 240 Level FlightAware ADS-B
03:38PM 36.4281 -84.8878 40° Northeast 471 542 35,300 780 Climbing FlightAware ADS-B
03:39PM 36.4814 -84.8312 40° Northeast 467 537 35,900 1,080 Climbing FlightAware ADS-B
03:39PM 36.5441 -84.7643 41° Northeast 463 533 36,600 900 Climbing FlightAware ADS-B
03:40PM 36.5936 -84.7115 41° Northeast 461 531 37,000 360 Climbing FlightAware ADS-B
03:40PM 36.6455 -84.6560 41° Northeast 462 532 37,000  Level FlightAware ADS-B
03:41PM 36.6966 -84.6014 41° Northeast 462 532 37,000  Level FlightAware ADS-B
03:41PM 36.7461 -84.5485 41° Northeast 462 532 37,000  Level FlightAware ADS-B
03:42PM 36.7971 -84.4939 41° Northeast 461 531 37,000  Level FlightAware ADS-B
03:42PM 36.8458 -84.4415 41° Northeast 461 531 37,000  Level FlightAware ADS-B
03:43PM 36.8949 -84.3884 41° Northeast 461 531 37,000  Level FlightAware ADS-B
03:43PM 36.9449 -84.3345 41° Northeast 461 531 37,000  Level FlightAware ADS-B
03:44PM 36.9955 -84.2799 41° Northeast 461 531 37,000  Level FlightAware ADS-B
03:44PM 37.0453 -84.2258 41° Northeast 461 531 37,000  Level FlightAware ADS-B
03:45PM 37.1079 -84.1580 41° Northeast 461 531 37,000  Level FlightAware ADS-B
03:46PM 37.1579 -84.1039 41° Northeast 462 532 37,000  Level FlightAware ADS-B
03:48PM 37.3939 -83.8459 41° Northeast 459 528 37,000  Level FlightAware ADS-B
03:49PM 37.4494 -83.7858 41° Northeast 461 531 37,000  Level Indianapolis Center
03:50PM 37.5442 -83.6814 41° Northeast 455 524 37,000  Level Indianapolis Center
03:55PM 38.0470 -83.1200 41° Northeast 447 514 37,000  Level FlightAware
03:56PM 38.1140 -83.0450 41° Northeast 449 517 37,000  Level FlightAware
03:56PM 38.1770 -82.9740 42° Northeast 450 518 37,000  Level FlightAware
03:57PM 38.2420 -82.9000 42° Northeast 451 519 37,000  Level FlightAware
03:58PM 38.3070 -82.8260 42° Northeast 453 521 37,000  Level FlightAware
03:58PM 38.3720 -82.7520 42° Northeast 454 522 37,000  Level FlightAware
03:59PM 38.4390 -82.6760 42° Northeast 456 525 37,000  Level FlightAware
04:00PM 38.4980 -82.6080 42° Northeast 458 527 37,000  Level FlightAware
04:00PM 38.5580 -82.5400 42° Northeast 455 524 37,000  Level FlightAware
04:01PM 38.6050 -82.4850 42° Northeast 454 522 37,000  Level FlightAware
04:02PM 38.6700 -82.4110 42° Northeast 453 521 37,000  Level FlightAware
04:02PM 38.7390 -82.3310 42° Northeast 452 520 37,000  Level FlightAware
04:03PM 38.8020 -82.2590 42° Northeast 450 518 37,000  Level FlightAware
04:04PM 38.8660 -82.1850 42° Northeast 450 518 37,000  Level FlightAware
04:04PM 38.9300 -82.1110 42° Northeast 448 516 37,000  Level FlightAware
04:05PM 38.9950 -82.0340 43° Northeast 446 513 37,000  Level FlightAware
04:06PM 39.0590 -81.9590 42° Northeast 445 512 37,000  Level FlightAware
04:07PM 39.1250 -81.8820 42° Northeast 445 512 37,000  Level FlightAware
04:07PM 39.1870 -81.8100 42° Northeast 443 510 37,000  Level FlightAware
04:08PM 39.2470 -81.7380 43° Northeast 443 510 37,000  Level FlightAware
04:09PM 39.3120 -81.6620 42° Northeast 441 507 37,000  Level FlightAware
04:09PM 39.3830 -81.6030 33° Northeast 435 501 37,000  Level FlightAware
04:10PM 39.4840 -81.5310 29° Northeast 434 499 37,000  Level FlightAware
04:12PM 39.5550 -81.4810 28° Northeast 434 499 37,000  Level FlightAware
04:12PM 39.7150 -81.3650 29° Northeast 430 495 37,000  Level FlightAware
04:13PM 39.8000 -81.3050 28° Northeast 427 491 37,000  Level FlightAware
04:14PM 39.8650 -81.2580 29° Northeast 427 491 37,000  Level FlightAware
04:15PM 39.9390 -81.2040 29° Northeast 430 495 37,000  Level FlightAware
04:15PM 40.0140 -81.1500 29° Northeast 431 496 37,000  Level FlightAware
04:16PM 40.0850 -81.0980 29° Northeast 432 497 37,000  Level FlightAware
04:17PM 40.1580 -81.0460 29° Northeast 432 497 37,000  Level FlightAware
04:17PM 40.2290 -80.9940 29° Northeast 431 496 37,000  Level FlightAware
04:18PM 40.3050 -80.9380 29° Northeast 432 497 37,000  Level FlightAware
04:19PM 40.3840 -80.8800 29° Northeast 432 497 37,000  Level FlightAware
04:20PM 40.4510 -80.8310 29° Northeast 433 498 37,000  Level FlightAware
04:20PM 40.4970 -80.7970 29° Northeast 433 498 37,000  Level FlightAware
04:21PM 40.5950 -80.7240 29° Northeast 433 498 37,000  Level FlightAware
04:22PM 40.6680 -80.6710 29° Northeast 433 498 37,000  Level FlightAware
04:22PM 40.7480 -80.6110 30° Northeast 432 497 37,000  Level FlightAware
04:23PM 40.8210 -80.5570 29° Northeast 433 498 37,000  Level FlightAware
04:24PM 40.8940 -80.5030 29° Northeast 432 497 37,000  Level FlightAware
04:24PM 40.9640 -80.4500 30° Northeast 433 498 37,000  Level FlightAware
04:26PM 41.0840 -80.3600 29° Northeast 435 501 37,000  Level FlightAware
04:26PM 41.1590 -80.3030 30° Northeast 435 501 37,000  Level FlightAware
04:27PM 41.2330 -80.2470 30° Northeast 436 502 37,000  Level FlightAware
04:28PM 41.3010 -80.1960 29° Northeast 435 501 37,000 -300 Level FlightAware
04:28PM 41.3760 -80.1390 30° Northeast 426 490 36,600 -720 Descending FlightAware
04:29PM 41.4360 -80.0930 30° Northeast 419 482 36,000 -1,020 Descending FlightAware
04:30PM 41.5160 -80.0320 30° Northeast 421 484 35,200 -1,020 Descending FlightAware
04:31PM 41.6540 -79.9260 30° Northeast 426 490 33,900 -1,020 Descending FlightAware
04:32PM 41.7270 -79.8700 30° Northeast 426 490 33,100 -1,140 Descending FlightAware
04:33PM 41.8100 -79.8070 29° Northeast 431 496 32,300 -1,020 Descending FlightAware
04:33PM 41.8790 -79.7530 30° Northeast 429 494 31,700 -1,020 Descending FlightAware
04:34PM 41.9540 -79.6940 30° Northeast 427 491 30,900 -1,080 Descending FlightAware
04:35PM 42.0240 -79.6410 29° Northeast 420 483 30,200 -960 Descending FlightAware
04:35PM 42.0750 -79.6010 30° Northeast 417 480 29,700 -1,020 Descending FlightAware
04:36PM 42.1530 -79.5400 30° Northeast 414 476 28,900 -1,080 Descending FlightAware
04:37PM 42.2280 -79.4810 30° Northeast 411 473 28,100 -1,020 Descending FlightAware
04:38PM 42.3190 -79.4090 30° Northeast 407 468 27,200 -960 Descending FlightAware
04:38PM 42.3800 -79.3610 30° Northeast 405 466 26,600 -1,020 Descending FlightAware
04:39PM 42.4560 -79.3010 30° Northeast 400 460 25,800 -1,080 Descending FlightAware
04:40PM 42.4960 -79.2800 21° North 393 452 25,400 -960 Descending FlightAware
04:40PM 42.5660 -79.2810 359° North 384 442 24,700 -1,560 Descending FlightAware
04:41PM 42.6610 -79.2910 356° North 380 437 23,100 -2,040 Descending FlightAware
04:42PM 42.7220 -79.2970 356° North 377 434 22,000 -1,860 Descending FlightAware
04:42PM 42.8050 -79.3050 356° North 373 429 20,600 -1,740 Descending FlightAware
04:43PM 42.8670 -79.3110 356° North 369 425 19,600 -1,620 Descending FlightAware
04:44PM 42.9400 -79.3190 355° North 365 420 18,400 -1,560 Descending FlightAware
04:44PM 43.0050 -79.3170 North 357 411 17,400 -1,560 Descending FlightAware
04:45PM 43.0780 -79.2790 21° North 344 396 16,200 -1,740 Descending FlightAware
04:46PM 43.1390 -79.2820 358° North 325 374 15,000 -1,740 Descending FlightAware
04:47PM 43.1960 -79.3070 342° North 321 369 13,900 -1,560 Descending FlightAware
04:47PM 43.2590 -79.3350 342° North 315 362 12,800 -1,320 Descending FlightAware
04:48PM 43.3200 -79.3660 340° North 299 344 12,000 -1,200 Descending FlightAware
04:49PM 43.3640 -79.3940 335° Northwest 310 357 11,200 -1,380 Descending FlightAware
04:49PM 43.4210 -79.4310 335° Northwest 302 348 10,200 -1,440 Descending FlightAware
04:50PM 43.4600 -79.4560 335° Northwest 301 346 9,400 -1,500 Descending FlightAware
04:50PM 43.4730 -79.4640 336° Northwest 299 344 9,200 -600 Descending FlightAware
04:51PM 43.4960 -79.4790 335° Northwest 297 342 8,800 -1,020 Descending FlightAware
04:51PM 43.5680 -79.5250 335° Northwest 272 313 7,900 -1,680 Descending FlightAware
04:52PM 43.5880 -79.5340 342° North 271 312 7,600 -1,500 Descending FlightAware
04:52PM 43.6190 -79.5120 27° Northeast 278 320 6,800 -1,740 Descending FlightAware
04:53PM 43.6400 -79.4810 47° Northeast 274 315 6,100 -1,860 Descending FlightAware
04:53PM 43.6520 -79.4630 47° Northeast 272 313 5,600 -1,200 Descending FlightAware
04:53PM 43.6750 -79.4300 46° Northeast 252 290 5,300 -660 Descending FlightAware
04:54PM 43.6990 -79.3960 46° Northeast 235 270 5,000 -300 Descending FlightAware
04:54PM 43.7200 -79.3640 48° Northeast 234 269 5,000  Level FlightAware
04:55PM 43.7390 -79.3370 46° Northeast 233 268 5,000  Level FlightAware
04:56PM 43.7640 -79.3150 32° Northeast 230 265 5,000 -180 Level FlightAware
04:56PM 43.8140 -79.3190 357° North 199 229 4,800 -900 Descending FlightAware
04:56PM 43.8210 -79.3360 300° West 197 227 4,400 -1,860 Descending FlightAware
04:56PM 43.8230 -79.3470 284° West 193 222 4,100 -840 Descending FlightAware
04:57PM 43.8210 -79.3710 263° West 179 206 4,000 -180 Descending FlightAware
04:57PM 43.8160 -79.3860 245° Southwest 167 192 4,000  Level FlightAware
04:57PM 43.8050 -79.4070 234° Southwest 160 184 4,000 -360 Level FlightAware
04:58PM 43.7900 -79.4300 228° Southwest 161 185 3,700 -780 Descending FlightAware
04:58PM 43.7780 -79.4480 227° Southwest 159 183 3,300 -900 Descending FlightAware
04:59PM 43.7620 -79.4710 226° Southwest 161 185 2,900 -780 Descending FlightAware
04:59PM 43.7490 -79.4900 227° Southwest 161 185 2,600 -780 Descending FlightAware
05:00PM 43.7340 -79.5120 227° Southwest 155 178 2,200 -840 Descending FlightAware
05:01PM 43.7130 -79.5430 227° Southwest 145 167 1,600 -840 Descending FlightAware
05:01PM 43.7050 -79.5540 225° Southwest 144 166 1,400 -840 Descending FlightAware
05:01PM 43.6910 -79.5740 226° Southwest 151 174 1,000 -480 Descending FlightAware
05:02PM 43.6750 -79.5980 227° Southwest 153 176 900 -180 Descending FlightAware